sensor_id;sensor_type;location;lat;lon;timestamp;temperature;humidity
28969;DHT22;16076;51.194;6.642;2022-08-27T00:01:31;20.00;99.90
28969;DHT22;16076;51.194;6.642;2022-08-27T00:03:57;20.00;99.90
28969;DHT22;16076;51.194;6.642;2022-08-27T00:06:25;19.90;99.90
28969;DHT22;16076;51.194;6.642;2022-08-27T00:08:52;19.60;99.90
28969;DHT22;16076;51.194;6.642;2022-08-27T00:11:20;19.60;99.90
28969;DHT22;16076;51.194;6.642;2022-08-27T00:13:46;19.50;99.90
28969;DHT22;16076;51.194;6.642;2022-08-27T00:16:13;19.40;99.90
28969;DHT22;16076;51.194;6.642;2022-08-27T00:18:43;19.50;99.90
28969;DHT22;16076;51.194;6.642;2022-08-27T00:21:10;19.40;99.90
28969;DHT22;16076;51.194;6.642;2022-08-27T00:23:36;19.50;99.90
28969;DHT22;16076;51.194;6.642;2022-08-27T00:26:04;19.50;99.90
28969;DHT22;16076;51.194;6.642;2022-08-27T00:28:30;19.50;99.90
28969;DHT22;16076;51.194;6.642;2022-08-27T00:30:56;19.50;99.90
28969;DHT22;16076;51.194;6.642;2022-08-27T00:33:23;19.50;99.90
28969;DHT22;16076;51.194;6.642;2022-08-27T00:35:49;19.60;99.90
28969;DHT22;16076;51.194;6.642;2022-08-27T00:38:16;19.60;99.90
28969;DHT22;16076;51.194;6.642;2022-08-27T00:40:45;19.60;99.90
28969;DHT22;16076;51.194;6.642;2022-08-27T00:43:11;19.60;99.90
28969;DHT22;16076;51.194;6.642;2022-08-27T00:45:42;19.60;99.90
28969;DHT22;16076;51.194;6.642;2022-08-27T00:48:14;19.70;99.90
28969;DHT22;16076;51.194;6.642;2022-08-27T00:50:49;19.70;99.90
28969;DHT22;16076;51.194;6.642;2022-08-27T00:53:20;19.60;99.90
28969;DHT22;16076;51.194;6.642;2022-08-27T00:56:07;19.60;99.90
28969;DHT22;16076;51.194;6.642;2022-08-27T00:58:35;19.70;99.90
28969;DHT22;16076;51.194;6.642;2022-08-27T01:01:02;19.70;99.90
28969;DHT22;16076;51.194;6.642;2022-08-27T01:03:28;19.70;99.90
28969;DHT22;16076;51.194;6.642;2022-08-27T01:05:55;19.70;99.90
28969;DHT22;16076;51.194;6.642;2022-08-27T01:08:23;19.70;99.90
28969;DHT22;16076;51.194;6.642;2022-08-27T01:10:50;19.70;99.90
28969;DHT22;16076;51.194;6.642;2022-08-27T01:13:18;19.70;99.90
28969;DHT22;16076;51.194;6.642;2022-08-27T01:15:43;19.70;99.90
28969;DHT22;16076;51.194;6.642;2022-08-27T01:18:09;19.80;99.90
28969;DHT22;16076;51.194;6.642;2022-08-27T01:25:31;19.70;99.90
28969;DHT22;16076;51.194;6.642;2022-08-27T01:27:58;19.60;99.90
28969;DHT22;16076;51.194;6.642;2022-08-27T01:30:24;19.60;99.90
28969;DHT22;16076;51.194;6.642;2022-08-27T01:32:51;19.70;99.90
28969;DHT22;16076;51.194;6.642;2022-08-27T01:35:17;19.70;99.90
28969;DHT22;16076;51.194;6.642;2022-08-27T01:37:46;19.70;99.90
28969;DHT22;16076;51.194;6.642;2022-08-27T01:40:13;19.70;99.90
28969;DHT22;16076;51.194;6.642;2022-08-27T01:42:40;19.70;99.90
28969;DHT22;16076;51.194;6.642;2022-08-27T01:45:11;19.70;99.90
28969;DHT22;16076;51.194;6.642;2022-08-27T01:47:37;19.70;99.90
28969;DHT22;16076;51.194;6.642;2022-08-27T01:50:04;19.70;99.90
28969;DHT22;16076;51.194;6.642;2022-08-27T01:52:30;19.70;99.90
28969;DHT22;16076;51.194;6.642;2022-08-27T01:54:56;19.70;99.90
28969;DHT22;16076;51.194;6.642;2022-08-27T01:57:22;19.70;99.90
28969;DHT22;16076;51.194;6.642;2022-08-27T01:59:48;19.70;99.90
28969;DHT22;16076;51.194;6.642;2022-08-27T02:02:16;19.70;99.90
28969;DHT22;16076;51.194;6.642;2022-08-27T02:04:42;19.70;99.90
28969;DHT22;16076;51.194;6.642;2022-08-27T02:07:08;19.60;99.90
28969;DHT22;16076;51.194;6.642;2022-08-27T02:09:34;19.50;99.90
28969;DHT22;16076;51.194;6.642;2022-08-27T02:11:59;19.50;99.90
28969;DHT22;16076;51.194;6.642;2022-08-27T02:14:26;19.50;99.90
28969;DHT22;16076;51.194;6.642;2022-08-27T02:16:54;19.60;99.90
28969;DHT22;16076;51.194;6.642;2022-08-27T02:19:19;19.50;99.90
28969;DHT22;16076;51.194;6.642;2022-08-27T02:21:46;19.50;99.90
28969;DHT22;16076;51.194;6.642;2022-08-27T02:24:11;19.50;99.90
28969;DHT22;16076;51.194;6.642;2022-08-27T02:26:37;19.50;99.90
28969;DHT22;16076;51.194;6.642;2022-08-27T02:29:03;19.50;99.90
28969;DHT22;16076;51.194;6.642;2022-08-27T02:31:29;19.60;99.90
28969;DHT22;16076;51.194;6.642;2022-08-27T02:33:55;19.60;99.90
28969;DHT22;16076;51.194;6.642;2022-08-27T02:36:21;19.60;99.90
28969;DHT22;16076;51.194;6.642;2022-08-27T02:38:47;19.60;99.90
28969;DHT22;16076;51.194;6.642;2022-08-27T02:41:12;19.70;99.90
28969;DHT22;16076;51.194;6.642;2022-08-27T02:43:41;19.70;99.90
28969;DHT22;16076;51.194;6.642;2022-08-27T02:46:07;19.70;99.90
28969;DHT22;16076;51.194;6.642;2022-08-27T02:48:34;19.70;99.90
28969;DHT22;16076;51.194;6.642;2022-08-27T02:51:00;19.70;99.90
28969;DHT22;16076;51.194;6.642;2022-08-27T02:53:28;19.70;99.90
28969;DHT22;16076;51.194;6.642;2022-08-27T02:55:54;19.70;99.90
28969;DHT22;16076;51.194;6.642;2022-08-27T02:58:19;19.80;99.90
28969;DHT22;16076;51.194;6.642;2022-08-27T03:00:46;19.80;99.90
28969;DHT22;16076;51.194;6.642;2022-08-27T03:03:12;19.80;99.90
28969;DHT22;16076;51.194;6.642;2022-08-27T03:05:38;19.90;99.90
28969;DHT22;16076;51.194;6.642;2022-08-27T03:08:04;19.90;99.90
28969;DHT22;16076;51.194;6.642;2022-08-27T03:10:30;19.90;99.90
28969;DHT22;16076;51.194;6.642;2022-08-27T03:12:55;19.90;99.90
28969;DHT22;16076;51.194;6.642;2022-08-27T03:15:21;20.00;99.90
28969;DHT22;16076;51.194;6.642;2022-08-27T03:17:47;20.00;99.90
28969;DHT22;16076;51.194;6.642;2022-08-27T03:20:32;20.00;99.90
28969;DHT22;16076;51.194;6.642;2022-08-27T03:22:58;20.00;99.90
28969;DHT22;16076;51.194;6.642;2022-08-27T03:25:24;19.90;99.90
28969;DHT22;16076;51.194;6.642;2022-08-27T03:27:50;19.90;99.90
28969;DHT22;16076;51.194;6.642;2022-08-27T03:30:18;20.00;99.90
28969;DHT22;16076;51.194;6.642;2022-08-27T03:32:43;20.10;99.90
28969;DHT22;16076;51.194;6.642;2022-08-27T03:35:09;20.20;99.90
28969;DHT22;16076;51.194;6.642;2022-08-27T03:37:35;20.20;99.90
28969;DHT22;16076;51.194;6.642;2022-08-27T03:40:02;20.30;99.90
28969;DHT22;16076;51.194;6.642;2022-08-27T03:42:28;20.30;99.90
28969;DHT22;16076;51.194;6.642;2022-08-27T03:44:54;20.20;99.90
28969;DHT22;16076;51.194;6.642;2022-08-27T03:47:19;20.20;99.90
28969;DHT22;16076;51.194;6.642;2022-08-27T03:49:46;20.10;99.90
28969;DHT22;16076;51.194;6.642;2022-08-27T03:52:12;20.00;99.90
28969;DHT22;16076;51.194;6.642;2022-08-27T03:54:41;19.90;99.90
28969;DHT22;16076;51.194;6.642;2022-08-27T03:57:07;19.80;99.90
28969;DHT22;16076;51.194;6.642;2022-08-27T03:59:32;19.80;99.90
28969;DHT22;16076;51.194;6.642;2022-08-27T04:01:58;19.80;99.90
28969;DHT22;16076;51.194;6.642;2022-08-27T04:04:26;19.80;99.90
28969;DHT22;16076;51.194;6.642;2022-08-27T04:06:52;19.80;99.90
28969;DHT22;16076;51.194;6.642;2022-08-27T04:09:18;19.70;99.90
28969;DHT22;16076;51.194;6.642;2022-08-27T04:11:44;19.70;99.90
28969;DHT22;16076;51.194;6.642;2022-08-27T04:14:09;19.70;99.90
28969;DHT22;16076;51.194;6.642;2022-08-27T04:16:35;19.70;99.90
28969;DHT22;16076;51.194;6.642;2022-08-27T04:19:02;19.70;99.90
28969;DHT22;16076;51.194;6.642;2022-08-27T04:21:27;19.70;99.90
28969;DHT22;16076;51.194;6.642;2022-08-27T04:23:54;19.70;99.90
28969;DHT22;16076;51.194;6.642;2022-08-27T04:26:20;19.70;99.90
28969;DHT22;16076;51.194;6.642;2022-08-27T04:28:46;19.60;99.90
28969;DHT22;16076;51.194;6.642;2022-08-27T04:31:12;19.50;99.90
28969;DHT22;16076;51.194;6.642;2022-08-27T04:33:37;19.40;99.90
28969;DHT22;16076;51.194;6.642;2022-08-27T04:36:04;19.40;99.90
28969;DHT22;16076;51.194;6.642;2022-08-27T04:38:30;19.50;99.90
28969;DHT22;16076;51.194;6.642;2022-08-27T04:40:56;19.50;99.90
28969;DHT22;16076;51.194;6.642;2022-08-27T04:43:40;19.50;99.90
28969;DHT22;16076;51.194;6.642;2022-08-27T04:46:06;19.50;99.90
28969;DHT22;16076;51.194;6.642;2022-08-27T04:48:33;19.50;99.90
28969;DHT22;16076;51.194;6.642;2022-08-27T04:50:59;19.50;99.90
28969;DHT22;16076;51.194;6.642;2022-08-27T04:53:24;19.50;99.90
28969;DHT22;16076;51.194;6.642;2022-08-27T04:55:51;19.50;99.90
28969;DHT22;16076;51.194;6.642;2022-08-27T04:58:18;19.50;99.90
28969;DHT22;16076;51.194;6.642;2022-08-27T05:00:48;19.50;99.90
28969;DHT22;16076;51.194;6.642;2022-08-27T05:03:15;19.60;99.90
28969;DHT22;16076;51.194;6.642;2022-08-27T05:05:41;19.60;99.90
28969;DHT22;16076;51.194;6.642;2022-08-27T05:08:07;19.60;99.90
28969;DHT22;16076;51.194;6.642;2022-08-27T05:10:41;19.50;99.90
28969;DHT22;16076;51.194;6.642;2022-08-27T05:13:07;19.50;99.90
28969;DHT22;16076;51.194;6.642;2022-08-27T05:15:33;19.30;99.90
28969;DHT22;16076;51.194;6.642;2022-08-27T05:18:02;19.30;99.90
28969;DHT22;16076;51.194;6.642;2022-08-27T05:20:28;19.20;99.90
28969;DHT22;16076;51.194;6.642;2022-08-27T05:22:54;19.20;99.90
28969;DHT22;16076;51.194;6.642;2022-08-27T05:25:20;19.20;99.90
28969;DHT22;16076;51.194;6.642;2022-08-27T05:27:46;19.10;99.90
28969;DHT22;16076;51.194;6.642;2022-08-27T05:30:12;19.00;99.90
28969;DHT22;16076;51.194;6.642;2022-08-27T05:32:37;19.00;99.90
28969;DHT22;16076;51.194;6.642;2022-08-27T05:35:04;19.00;99.90
28969;DHT22;16076;51.194;6.642;2022-08-27T05:37:30;19.00;99.90
28969;DHT22;16076;51.194;6.642;2022-08-27T05:40:02;19.00;99.90
28969;DHT22;16076;51.194;6.642;2022-08-27T05:42:28;18.90;99.90
28969;DHT22;16076;51.194;6.642;2022-08-27T05:44:53;18.80;99.90
28969;DHT22;16076;51.194;6.642;2022-08-27T05:47:19;18.60;99.90
28969;DHT22;16076;51.194;6.642;2022-08-27T05:49:45;18.40;99.90
28969;DHT22;16076;51.194;6.642;2022-08-27T05:52:11;18.40;99.90
28969;DHT22;16076;51.194;6.642;2022-08-27T05:54:36;18.30;99.90
28969;DHT22;16076;51.194;6.642;2022-08-27T05:57:02;18.30;99.90
28969;DHT22;16076;51.194;6.642;2022-08-27T05:59:28;18.30;99.90
28969;DHT22;16076;51.194;6.642;2022-08-27T06:02:12;18.30;99.90
28969;DHT22;16076;51.194;6.642;2022-08-27T06:04:37;18.40;99.90
28969;DHT22;16076;51.194;6.642;2022-08-27T06:07:03;18.40;99.90
28969;DHT22;16076;51.194;6.642;2022-08-27T06:09:30;18.40;99.90
28969;DHT22;16076;51.194;6.642;2022-08-27T06:11:56;18.60;99.90
28969;DHT22;16076;51.194;6.642;2022-08-27T06:14:24;18.70;99.90
28969;DHT22;16076;51.194;6.642;2022-08-27T06:16:50;18.70;99.90
28969;DHT22;16076;51.194;6.642;2022-08-27T06:19:16;18.80;99.90
28969;DHT22;16076;51.194;6.642;2022-08-27T06:21:42;19.00;99.90
28969;DHT22;16076;51.194;6.642;2022-08-27T06:24:09;19.00;99.90
28969;DHT22;16076;51.194;6.642;2022-08-27T06:26:36;19.10;99.90
28969;DHT22;16076;51.194;6.642;2022-08-27T06:29:03;19.10;99.90
28969;DHT22;16076;51.194;6.642;2022-08-27T06:31:28;19.10;99.90
28969;DHT22;16076;51.194;6.642;2022-08-27T06:33:56;19.10;99.90
28969;DHT22;16076;51.194;6.642;2022-08-27T06:36:23;19.20;99.90
28969;DHT22;16076;51.194;6.642;2022-08-27T06:38:49;19.20;99.90
28969;DHT22;16076;51.194;6.642;2022-08-27T06:41:16;19.30;99.90
28969;DHT22;16076;51.194;6.642;2022-08-27T06:43:43;19.20;99.90
28969;DHT22;16076;51.194;6.642;2022-08-27T06:46:10;19.40;99.90
28969;DHT22;16076;51.194;6.642;2022-08-27T06:48:37;19.40;99.90
28969;DHT22;16076;51.194;6.642;2022-08-27T06:51:09;19.40;99.90
28969;DHT22;16076;51.194;6.642;2022-08-27T06:53:37;19.50;99.90
28969;DHT22;16076;51.194;6.642;2022-08-27T06:56:02;19.50;99.90
28969;DHT22;16076;51.194;6.642;2022-08-27T06:58:29;19.60;99.90
28969;DHT22;16076;51.194;6.642;2022-08-27T07:00:55;19.70;99.90
28969;DHT22;16076;51.194;6.642;2022-08-27T07:03:20;19.90;99.90
28969;DHT22;16076;51.194;6.642;2022-08-27T07:05:46;20.00;99.90
28969;DHT22;16076;51.194;6.642;2022-08-27T07:08:12;20.20;99.90
28969;DHT22;16076;51.194;6.642;2022-08-27T07:10:37;20.30;99.90
28969;DHT22;16076;51.194;6.642;2022-08-27T07:13:03;20.40;99.90
28969;DHT22;16076;51.194;6.642;2022-08-27T07:15:29;20.50;99.90
28969;DHT22;16076;51.194;6.642;2022-08-27T07:17:54;20.70;99.90
28969;DHT22;16076;51.194;6.642;2022-08-27T07:20:20;20.80;99.90
28969;DHT22;16076;51.194;6.642;2022-08-27T07:22:46;20.80;99.90
28969;DHT22;16076;51.194;6.642;2022-08-27T07:25:14;20.80;99.90
28969;DHT22;16076;51.194;6.642;2022-08-27T07:27:42;20.90;99.90
28969;DHT22;16076;51.194;6.642;2022-08-27T07:30:09;20.90;99.90
28969;DHT22;16076;51.194;6.642;2022-08-27T07:32:36;21.00;99.90
28969;DHT22;16076;51.194;6.642;2022-08-27T07:35:02;21.10;99.90
28969;DHT22;16076;51.194;6.642;2022-08-27T07:37:28;21.10;99.90
28969;DHT22;16076;51.194;6.642;2022-08-27T07:39:53;21.10;99.90
28969;DHT22;16076;51.194;6.642;2022-08-27T07:42:19;21.10;99.90
28969;DHT22;16076;51.194;6.642;2022-08-27T07:45:03;21.10;99.90
28969;DHT22;16076;51.194;6.642;2022-08-27T07:47:29;21.10;99.90
28969;DHT22;16076;51.194;6.642;2022-08-27T07:49:56;21.10;99.90
28969;DHT22;16076;51.194;6.642;2022-08-27T07:52:21;21.10;99.90
28969;DHT22;16076;51.194;6.642;2022-08-27T07:54:49;21.10;99.90
28969;DHT22;16076;51.194;6.642;2022-08-27T07:57:16;21.10;99.90
28969;DHT22;16076;51.194;6.642;2022-08-27T07:59:41;21.20;99.90
28969;DHT22;16076;51.194;6.642;2022-08-27T08:02:07;21.20;99.90
28969;DHT22;16076;51.194;6.642;2022-08-27T08:04:33;21.30;99.90
28969;DHT22;16076;51.194;6.642;2022-08-27T08:06:58;21.30;99.90
28969;DHT22;16076;51.194;6.642;2022-08-27T08:09:24;21.40;99.90
28969;DHT22;16076;51.194;6.642;2022-08-27T08:11:50;21.40;99.90
28969;DHT22;16076;51.194;6.642;2022-08-27T08:14:16;21.40;99.90
28969;DHT22;16076;51.194;6.642;2022-08-27T08:16:42;21.40;99.90
28969;DHT22;16076;51.194;6.642;2022-08-27T08:19:08;21.50;99.90
28969;DHT22;16076;51.194;6.642;2022-08-27T08:21:34;21.50;99.90
28969;DHT22;16076;51.194;6.642;2022-08-27T08:24:00;21.60;99.90
28969;DHT22;16076;51.194;6.642;2022-08-27T08:26:27;21.70;99.90
28969;DHT22;16076;51.194;6.642;2022-08-27T08:28:52;21.60;99.90
28969;DHT22;16076;51.194;6.642;2022-08-27T08:31:18;21.70;99.90
28969;DHT22;16076;51.194;6.642;2022-08-27T08:33:44;21.70;99.90
28969;DHT22;16076;51.194;6.642;2022-08-27T08:36:13;21.70;99.90
28969;DHT22;16076;51.194;6.642;2022-08-27T08:38:40;21.60;99.90
28969;DHT22;16076;51.194;6.642;2022-08-27T08:41:18;21.50;99.90
28969;DHT22;16076;51.194;6.642;2022-08-27T08:43:48;21.50;99.90
28969;DHT22;16076;51.194;6.642;2022-08-27T08:46:17;21.60;99.90
28969;DHT22;16076;51.194;6.642;2022-08-27T08:48:48;21.60;99.90
28969;DHT22;16076;51.194;6.642;2022-08-27T08:53:50;21.70;99.90
28969;DHT22;16076;51.194;6.642;2022-08-27T08:56:32;21.60;99.90
28969;DHT22;16076;51.194;6.642;2022-08-27T08:59:07;21.70;99.90
28969;DHT22;16076;51.194;6.642;2022-08-27T09:01:35;21.80;99.90
28969;DHT22;16076;51.194;6.642;2022-08-27T09:04:04;22.00;99.90
28969;DHT22;16076;51.194;6.642;2022-08-27T09:06:37;22.00;99.90
28969;DHT22;16076;51.194;6.642;2022-08-27T09:11:58;22.30;99.90
28969;DHT22;16076;51.194;6.642;2022-08-27T09:16:53;22.50;99.90
28969;DHT22;16076;51.194;6.642;2022-08-27T09:19:18;22.50;99.90
28969;DHT22;16076;51.194;6.642;2022-08-27T09:27:10;22.30;99.90
28969;DHT22;16076;51.194;6.642;2022-08-27T09:29:45;22.30;99.90
28969;DHT22;16076;51.194;6.642;2022-08-27T09:32:11;22.40;99.90
28969;DHT22;16076;51.194;6.642;2022-08-27T09:34:38;22.40;99.90
28969;DHT22;16076;51.194;6.642;2022-08-27T09:37:21;22.50;99.90
28969;DHT22;16076;51.194;6.642;2022-08-27T09:42:35;22.90;99.90
28969;DHT22;16076;51.194;6.642;2022-08-27T09:45:05;23.30;99.90
28969;DHT22;16076;51.194;6.642;2022-08-27T09:47:39;23.30;99.90
28969;DHT22;16076;51.194;6.642;2022-08-27T09:50:06;23.40;99.90
28969;DHT22;16076;51.194;6.642;2022-08-27T09:52:54;23.40;99.90
28969;DHT22;16076;51.194;6.642;2022-08-27T09:57:51;23.50;99.90
28969;DHT22;16076;51.194;6.642;2022-08-27T10:00:16;23.50;99.90
28969;DHT22;16076;51.194;6.642;2022-08-27T10:02:51;23.50;99.90
28969;DHT22;16076;51.194;6.642;2022-08-27T10:05:21;23.60;99.90
28969;DHT22;16076;51.194;6.642;2022-08-27T10:07:53;23.80;99.90
28969;DHT22;16076;51.194;6.642;2022-08-27T10:10:56;23.80;99.90
28969;DHT22;16076;51.194;6.642;2022-08-27T10:13:15;24.00;99.50
28969;DHT22;16076;51.194;6.642;2022-08-27T10:18:13;24.20;98.60
28969;DHT22;16076;51.194;6.642;2022-08-27T10:20:54;24.30;98.50
28969;DHT22;16076;51.194;6.642;2022-08-27T10:23:30;24.50;98.60
28969;DHT22;16076;51.194;6.642;2022-08-27T10:33:49;24.80;97.40
28969;DHT22;16076;51.194;6.642;2022-08-27T10:39:05;25.00;97.10
28969;DHT22;16076;51.194;6.642;2022-08-27T10:41:34;25.10;97.00
28969;DHT22;16076;51.194;6.642;2022-08-27T10:51:59;25.30;96.60
28969;DHT22;16076;51.194;6.642;2022-08-27T10:59:46;25.50;95.90
28969;DHT22;16076;51.194;6.642;2022-08-27T11:02:25;25.50;95.90
28969;DHT22;16076;51.194;6.642;2022-08-27T11:04:56;25.50;95.40
28969;DHT22;16076;51.194;6.642;2022-08-27T11:07:26;25.50;95.70
28969;DHT22;16076;51.194;6.642;2022-08-27T11:10:00;25.40;95.00
28969;DHT22;16076;51.194;6.642;2022-08-27T11:12:28;25.40;95.10
28969;DHT22;16076;51.194;6.642;2022-08-27T11:14:59;25.50;95.20
28969;DHT22;16076;51.194;6.642;2022-08-27T11:27:44;26.00;94.30
28969;DHT22;16076;51.194;6.642;2022-08-27T11:30:15;26.20;93.80
28969;DHT22;16076;51.194;6.642;2022-08-27T11:32:45;26.30;93.10
28969;DHT22;16076;51.194;6.642;2022-08-27T11:38:16;26.70;93.10
28969;DHT22;16076;51.194;6.642;2022-08-27T11:40:47;26.70;92.00
28969;DHT22;16076;51.194;6.642;2022-08-27T11:43:18;26.70;92.10
28969;DHT22;16076;51.194;6.642;2022-08-27T11:45:59;26.90;92.10
28969;DHT22;16076;51.194;6.642;2022-08-27T11:48:29;27.10;91.30
28969;DHT22;16076;51.194;6.642;2022-08-27T11:50:59;27.30;91.30
28969;DHT22;16076;51.194;6.642;2022-08-27T11:53:26;27.30;90.60
28969;DHT22;16076;51.194;6.642;2022-08-27T11:55:53;27.50;90.70
28969;DHT22;16076;51.194;6.642;2022-08-27T12:00:46;27.00;90.40
28969;DHT22;16076;51.194;6.642;2022-08-27T12:05:48;26.70;91.00
28969;DHT22;16076;51.194;6.642;2022-08-27T12:08:29;26.90;90.90
28969;DHT22;16076;51.194;6.642;2022-08-27T12:13:31;27.00;90.80
28969;DHT22;16076;51.194;6.642;2022-08-27T12:16:05;26.90;90.30
28969;DHT22;16076;51.194;6.642;2022-08-27T12:23:28;27.00;89.40
28969;DHT22;16076;51.194;6.642;2022-08-27T12:28:49;27.00;90.00
28969;DHT22;16076;51.194;6.642;2022-08-27T12:31:18;27.10;89.10
28969;DHT22;16076;51.194;6.642;2022-08-27T12:33:47;27.10;89.10
28969;DHT22;16076;51.194;6.642;2022-08-27T12:36:15;27.20;89.30
28969;DHT22;16076;51.194;6.642;2022-08-27T12:41:22;27.20;89.80
28969;DHT22;16076;51.194;6.642;2022-08-27T12:43:48;27.10;88.20
28969;DHT22;16076;51.194;6.642;2022-08-27T12:46:16;26.90;88.70
28969;DHT22;16076;51.194;6.642;2022-08-27T12:48:44;26.80;89.10
28969;DHT22;16076;51.194;6.642;2022-08-27T12:51:31;26.80;89.60
28969;DHT22;16076;51.194;6.642;2022-08-27T13:03:59;27.40;86.70
28969;DHT22;16076;51.194;6.642;2022-08-27T13:06:27;27.30;87.20
28969;DHT22;16076;51.194;6.642;2022-08-27T13:08:57;27.20;87.40
28969;DHT22;16076;51.194;6.642;2022-08-27T13:11:27;27.00;87.20
28969;DHT22;16076;51.194;6.642;2022-08-27T13:14:03;27.00;87.90
28969;DHT22;16076;51.194;6.642;2022-08-27T13:16:29;27.10;87.60
28969;DHT22;16076;51.194;6.642;2022-08-27T13:18:56;26.90;88.00
28969;DHT22;16076;51.194;6.642;2022-08-27T13:21:26;26.60;88.20
28969;DHT22;16076;51.194;6.642;2022-08-27T13:23:57;26.60;88.60
28969;DHT22;16076;51.194;6.642;2022-08-27T13:26:24;26.50;88.70
28969;DHT22;16076;51.194;6.642;2022-08-27T13:28:49;26.50;89.00
28969;DHT22;16076;51.194;6.642;2022-08-27T13:31:19;26.60;89.80
28969;DHT22;16076;51.194;6.642;2022-08-27T13:33:48;26.70;89.30
28969;DHT22;16076;51.194;6.642;2022-08-27T13:36:24;26.70;88.50
28969;DHT22;16076;51.194;6.642;2022-08-27T13:38:49;26.70;88.60
28969;DHT22;16076;51.194;6.642;2022-08-27T13:41:24;26.50;89.20
28969;DHT22;16076;51.194;6.642;2022-08-27T13:43:51;26.50;89.60
28969;DHT22;16076;51.194;6.642;2022-08-27T13:46:18;26.60;88.70
28969;DHT22;16076;51.194;6.642;2022-08-27T13:48:44;26.70;88.40
28969;DHT22;16076;51.194;6.642;2022-08-27T13:51:12;26.60;88.00
28969;DHT22;16076;51.194;6.642;2022-08-27T13:53:42;26.50;89.10
28969;DHT22;16076;51.194;6.642;2022-08-27T13:56:32;26.60;89.90
28969;DHT22;16076;51.194;6.642;2022-08-27T14:01:35;26.60;90.10
28969;DHT22;16076;51.194;6.642;2022-08-27T14:04:07;26.70;89.00
28969;DHT22;16076;51.194;6.642;2022-08-27T14:06:43;26.70;88.40
28969;DHT22;16076;51.194;6.642;2022-08-27T14:11:42;26.80;88.40
28969;DHT22;16076;51.194;6.642;2022-08-27T14:14:07;26.50;89.10
28969;DHT22;16076;51.194;6.642;2022-08-27T14:16:34;26.40;89.00
28969;DHT22;16076;51.194;6.642;2022-08-27T14:21:26;26.20;89.70
28969;DHT22;16076;51.194;6.642;2022-08-27T14:23:52;26.10;90.00
28969;DHT22;16076;51.194;6.642;2022-08-27T14:26:18;26.10;90.10
28969;DHT22;16076;51.194;6.642;2022-08-27T14:28:44;26.10;89.50
28969;DHT22;16076;51.194;6.642;2022-08-27T14:31:10;26.00;89.80
28969;DHT22;16076;51.194;6.642;2022-08-27T14:33:36;26.00;90.00
28969;DHT22;16076;51.194;6.642;2022-08-27T14:36:02;26.00;90.00
28969;DHT22;16076;51.194;6.642;2022-08-27T14:38:27;25.90;90.00
28969;DHT22;16076;51.194;6.642;2022-08-27T14:40:55;26.00;90.00
28969;DHT22;16076;51.194;6.642;2022-08-27T14:43:22;26.10;90.20
28969;DHT22;16076;51.194;6.642;2022-08-27T14:45:48;26.10;90.50
28969;DHT22;16076;51.194;6.642;2022-08-27T14:48:23;26.10;90.20
28969;DHT22;16076;51.194;6.642;2022-08-27T14:50:52;26.20;90.20
28969;DHT22;16076;51.194;6.642;2022-08-27T14:53:17;26.20;90.00
28969;DHT22;16076;51.194;6.642;2022-08-27T14:55:44;26.00;89.70
28969;DHT22;16076;51.194;6.642;2022-08-27T14:58:10;25.80;90.00
28969;DHT22;16076;51.194;6.642;2022-08-27T15:00:45;25.60;90.90
28969;DHT22;16076;51.194;6.642;2022-08-27T15:03:11;25.50;91.10
28969;DHT22;16076;51.194;6.642;2022-08-27T15:05:37;25.50;90.90
28969;DHT22;16076;51.194;6.642;2022-08-27T15:08:05;25.50;91.00
28969;DHT22;16076;51.194;6.642;2022-08-27T15:10:31;25.60;90.90
28969;DHT22;16076;51.194;6.642;2022-08-27T15:12:57;25.70;90.80
28969;DHT22;16076;51.194;6.642;2022-08-27T15:15:23;25.80;90.50
28969;DHT22;16076;51.194;6.642;2022-08-27T15:17:49;25.80;90.80
28969;DHT22;16076;51.194;6.642;2022-08-27T15:20:15;25.70;90.60
28969;DHT22;16076;51.194;6.642;2022-08-27T15:22:43;25.60;90.60
28969;DHT22;16076;51.194;6.642;2022-08-27T15:25:10;25.50;90.60
28969;DHT22;16076;51.194;6.642;2022-08-27T15:27:36;25.40;90.60
28969;DHT22;16076;51.194;6.642;2022-08-27T15:30:03;25.40;90.50
28969;DHT22;16076;51.194;6.642;2022-08-27T15:32:34;25.40;90.60
28969;DHT22;16076;51.194;6.642;2022-08-27T15:35:01;25.30;91.00
28969;DHT22;16076;51.194;6.642;2022-08-27T15:37:29;25.20;90.80
28969;DHT22;16076;51.194;6.642;2022-08-27T15:39:55;25.20;91.10
28969;DHT22;16076;51.194;6.642;2022-08-27T15:42:20;25.10;91.20
28969;DHT22;16076;51.194;6.642;2022-08-27T15:44:48;25.20;91.30
28969;DHT22;16076;51.194;6.642;2022-08-27T15:47:14;25.20;91.20
28969;DHT22;16076;51.194;6.642;2022-08-27T15:49:40;25.20;91.10
28969;DHT22;16076;51.194;6.642;2022-08-27T15:52:07;25.20;91.40
28969;DHT22;16076;51.194;6.642;2022-08-27T15:54:33;25.20;91.20
28969;DHT22;16076;51.194;6.642;2022-08-27T15:56:59;25.10;91.30
28969;DHT22;16076;51.194;6.642;2022-08-27T15:59:27;25.00;91.60
28969;DHT22;16076;51.194;6.642;2022-08-27T16:01:52;25.00;91.50
28969;DHT22;16076;51.194;6.642;2022-08-27T16:04:21;25.00;91.50
28969;DHT22;16076;51.194;6.642;2022-08-27T16:06:48;25.00;91.60
28969;DHT22;16076;51.194;6.642;2022-08-27T16:09:14;24.80;91.50
28969;DHT22;16076;51.194;6.642;2022-08-27T16:11:40;24.70;91.70
28969;DHT22;16076;51.194;6.642;2022-08-27T16:14:06;24.60;91.90
28969;DHT22;16076;51.194;6.642;2022-08-27T16:16:32;24.60;91.90
28969;DHT22;16076;51.194;6.642;2022-08-27T16:19:01;24.50;91.80
28969;DHT22;16076;51.194;6.642;2022-08-27T16:21:27;24.50;92.00
28969;DHT22;16076;51.194;6.642;2022-08-27T16:23:52;24.40;92.10
28969;DHT22;16076;51.194;6.642;2022-08-27T16:26:18;24.30;92.60
28969;DHT22;16076;51.194;6.642;2022-08-27T16:28:44;24.30;92.50
28969;DHT22;16076;51.194;6.642;2022-08-27T16:31:10;24.20;92.40
28969;DHT22;16076;51.194;6.642;2022-08-27T16:33:37;24.20;92.70
28969;DHT22;16076;51.194;6.642;2022-08-27T16:36:03;24.10;92.90
28969;DHT22;16076;51.194;6.642;2022-08-27T16:38:31;24.10;93.00
28969;DHT22;16076;51.194;6.642;2022-08-27T16:40:57;24.00;93.10
28969;DHT22;16076;51.194;6.642;2022-08-27T16:43:24;24.00;93.10
28969;DHT22;16076;51.194;6.642;2022-08-27T16:45:50;24.00;93.20
28969;DHT22;16076;51.194;6.642;2022-08-27T16:48:16;23.90;93.40
28969;DHT22;16076;51.194;6.642;2022-08-27T16:51:01;23.80;93.50
28969;DHT22;16076;51.194;6.642;2022-08-27T16:53:27;23.80;93.60
28969;DHT22;16076;51.194;6.642;2022-08-27T16:55:54;23.80;93.60
28969;DHT22;16076;51.194;6.642;2022-08-27T16:58:21;23.70;93.60
28969;DHT22;16076;51.194;6.642;2022-08-27T17:00:51;23.70;93.70
28969;DHT22;16076;51.194;6.642;2022-08-27T17:03:17;23.60;93.80
28969;DHT22;16076;51.194;6.642;2022-08-27T17:05:43;23.60;93.80
28969;DHT22;16076;51.194;6.642;2022-08-27T17:08:09;23.60;93.90
28969;DHT22;16076;51.194;6.642;2022-08-27T17:10:37;23.60;93.80
28969;DHT22;16076;51.194;6.642;2022-08-27T17:13:04;23.60;94.00